Terminal Aerodrome Forecast
Issued by NWS

Home | Current Version | Previous Version | Text Only | Print | Product List | Glossary On
Versions: 1 2 3 4 5 6 7 8 9 10 11 12 13 14 15 16 17 18 19 20 21
000
FTUS43 KLSX 042300
TAFUIN
TAF
KUIN 042338Z 0500/0524 22008KT P6SM SCT060 BKN250
     FM050300 16006KT 6SM -SHRA BKN040 OVC080
      TEMPO 0503/0505 2SM TSRA OVC030CB
     FM050700 17006KT P6SM BKN100 OVC250
     FM051700 21010G18KT P6SM FEW050 SCT120=

USA.gov is the U.S. government's official web portal to all federal, state and local government web resources and services.